sensor_id;sensor_type;location;lat;lon;timestamp;P1;durP1;ratioP1;P2;durP2;ratioP2
78885;SDS011;68269;52.514;5.722;2024-01-06T00:02:14;8.57;;;2.80;;
78885;SDS011;68269;52.514;5.722;2024-01-06T00:04:46;9.68;;;2.50;;
78885;SDS011;68269;52.514;5.722;2024-01-06T00:07:15;8.98;;;2.30;;
78885;SDS011;68269;52.514;5.722;2024-01-06T00:09:45;11.70;;;3.33;;
78885;SDS011;68269;52.514;5.722;2024-01-06T00:12:14;10.27;;;2.97;;
78885;SDS011;68269;52.514;5.722;2024-01-06T00:14:44;9.68;;;2.78;;
78885;SDS011;68269;52.514;5.722;2024-01-06T00:17:15;9.70;;;3.40;;
78885;SDS011;68269;52.514;5.722;2024-01-06T00:19:47;12.32;;;3.20;;
78885;SDS011;68269;52.514;5.722;2024-01-06T00:22:17;11.07;;;3.47;;
78885;SDS011;68269;52.514;5.722;2024-01-06T00:24:46;11.57;;;3.30;;
78885;SDS011;68269;52.514;5.722;2024-01-06T00:27:16;12.43;;;4.00;;
78885;SDS011;68269;52.514;5.722;2024-01-06T00:29:45;10.00;;;2.85;;
78885;SDS011;68269;52.514;5.722;2024-01-06T00:32:14;11.93;;;3.95;;
78885;SDS011;68269;52.514;5.722;2024-01-06T00:34:43;14.32;;;4.30;;
78885;SDS011;68269;52.514;5.722;2024-01-06T00:37:15;11.00;;;3.50;;
78885;SDS011;68269;52.514;5.722;2024-01-06T00:39:45;11.40;;;3.30;;
78885;SDS011;68269;52.514;5.722;2024-01-06T00:42:14;9.82;;;3.03;;
78885;SDS011;68269;52.514;5.722;2024-01-06T00:44:43;12.73;;;3.90;;
78885;SDS011;68269;52.514;5.722;2024-01-06T00:47:13;13.57;;;4.00;;
78885;SDS011;68269;52.514;5.722;2024-01-06T00:49:42;10.82;;;4.20;;
78885;SDS011;68269;52.514;5.722;2024-01-06T00:52:12;10.20;;;3.25;;
78885;SDS011;68269;52.514;5.722;2024-01-06T00:54:44;14.32;;;3.63;;
78885;SDS011;68269;52.514;5.722;2024-01-06T00:57:13;13.48;;;3.85;;
78885;SDS011;68269;52.514;5.722;2024-01-06T00:59:42;12.15;;;3.15;;
78885;SDS011;68269;52.514;5.722;2024-01-06T01:02:12;11.63;;;4.40;;
78885;SDS011;68269;52.514;5.722;2024-01-06T01:04:41;14.38;;;4.72;;
78885;SDS011;68269;52.514;5.722;2024-01-06T01:07:10;9.55;;;3.55;;
78885;SDS011;68269;52.514;5.722;2024-01-06T01:09:44;15.65;;;4.35;;
78885;SDS011;68269;52.514;5.722;2024-01-06T01:12:13;11.43;;;3.78;;
78885;SDS011;68269;52.514;5.722;2024-01-06T01:14:42;12.02;;;3.85;;
78885;SDS011;68269;52.514;5.722;2024-01-06T01:17:12;13.10;;;4.43;;
78885;SDS011;68269;52.514;5.722;2024-01-06T01:19:41;12.90;;;4.03;;
78885;SDS011;68269;52.514;5.722;2024-01-06T01:22:10;13.00;;;3.97;;
78885;SDS011;68269;52.514;5.722;2024-01-06T01:24:40;11.73;;;3.65;;
78885;SDS011;68269;52.514;5.722;2024-01-06T01:27:13;14.93;;;3.90;;
78885;SDS011;68269;52.514;5.722;2024-01-06T01:29:42;12.15;;;4.82;;
78885;SDS011;68269;52.514;5.722;2024-01-06T01:32:11;11.95;;;4.82;;
78885;SDS011;68269;52.514;5.722;2024-01-06T01:34:40;11.48;;;4.57;;
78885;SDS011;68269;52.514;5.722;2024-01-06T01:37:10;13.55;;;4.45;;
78885;SDS011;68269;52.514;5.722;2024-01-06T01:39:39;12.43;;;3.95;;
78885;SDS011;68269;52.514;5.722;2024-01-06T01:42:11;16.55;;;4.45;;
78885;SDS011;68269;52.514;5.722;2024-01-06T01:44:40;15.43;;;4.10;;
78885;SDS011;68269;52.514;5.722;2024-01-06T01:47:10;11.88;;;4.10;;
78885;SDS011;68269;52.514;5.722;2024-01-06T01:49:44;14.57;;;5.10;;
78885;SDS011;68269;52.514;5.722;2024-01-06T01:52:14;12.80;;;4.15;;
78885;SDS011;68269;52.514;5.722;2024-01-06T01:54:45;11.20;;;4.15;;
78885;SDS011;68269;52.514;5.722;2024-01-06T01:57:17;13.48;;;3.78;;
78885;SDS011;68269;52.514;5.722;2024-01-06T01:59:47;11.45;;;4.25;;
78885;SDS011;68269;52.514;5.722;2024-01-06T02:02:16;10.07;;;3.30;;
78885;SDS011;68269;52.514;5.722;2024-01-06T02:04:46;12.60;;;5.43;;
78885;SDS011;68269;52.514;5.722;2024-01-06T02:07:16;11.73;;;3.95;;
78885;SDS011;68269;52.514;5.722;2024-01-06T02:09:45;10.55;;;3.28;;
78885;SDS011;68269;52.514;5.722;2024-01-06T02:12:17;10.10;;;3.70;;
78885;SDS011;68269;52.514;5.722;2024-01-06T02:14:46;11.75;;;4.57;;
78885;SDS011;68269;52.514;5.722;2024-01-06T02:17:15;13.00;;;4.07;;
78885;SDS011;68269;52.514;5.722;2024-01-06T02:19:45;10.75;;;3.60;;
78885;SDS011;68269;52.514;5.722;2024-01-06T02:22:17;11.23;;;4.18;;
78885;SDS011;68269;52.514;5.722;2024-01-06T02:24:47;14.00;;;3.58;;
78885;SDS011;68269;52.514;5.722;2024-01-06T02:27:16;9.52;;;3.10;;
78885;SDS011;68269;52.514;5.722;2024-01-06T02:29:45;11.02;;;3.83;;
78885;SDS011;68269;52.514;5.722;2024-01-06T02:32:14;8.85;;;3.00;;
78885;SDS011;68269;52.514;5.722;2024-01-06T02:34:44;7.65;;;2.67;;
78885;SDS011;68269;52.514;5.722;2024-01-06T02:37:13;11.38;;;3.70;;
78885;SDS011;68269;52.514;5.722;2024-01-06T02:39:45;9.27;;;3.63;;
78885;SDS011;68269;52.514;5.722;2024-01-06T02:42:14;9.32;;;3.15;;
78885;SDS011;68269;52.514;5.722;2024-01-06T02:44:43;10.90;;;3.33;;
78885;SDS011;68269;52.514;5.722;2024-01-06T02:47:12;8.70;;;2.67;;
78885;SDS011;68269;52.514;5.722;2024-01-06T02:49:42;7.88;;;2.50;;
78885;SDS011;68269;52.514;5.722;2024-01-06T02:52:11;9.40;;;3.15;;
78885;SDS011;68269;52.514;5.722;2024-01-06T02:54:40;8.35;;;2.47;;
78885;SDS011;68269;52.514;5.722;2024-01-06T02:57:12;7.65;;;2.15;;
78885;SDS011;68269;52.514;5.722;2024-01-06T02:59:41;10.68;;;3.53;;
78885;SDS011;68269;52.514;5.722;2024-01-06T03:02:11;7.35;;;2.60;;
78885;SDS011;68269;52.514;5.722;2024-01-06T03:04:40;6.85;;;2.17;;
78885;SDS011;68269;52.514;5.722;2024-01-06T03:07:09;8.38;;;2.45;;
78885;SDS011;68269;52.514;5.722;2024-01-06T03:09:38;8.40;;;2.58;;
78885;SDS011;68269;52.514;5.722;2024-01-06T03:12:08;9.18;;;2.38;;
78885;SDS011;68269;52.514;5.722;2024-01-06T03:14:40;8.27;;;2.90;;
78885;SDS011;68269;52.514;5.722;2024-01-06T03:17:09;8.20;;;2.42;;
78885;SDS011;68269;52.514;5.722;2024-01-06T03:19:38;7.05;;;2.15;;
78885;SDS011;68269;52.514;5.722;2024-01-06T03:22:08;8.05;;;2.38;;
78885;SDS011;68269;52.514;5.722;2024-01-06T03:24:37;8.55;;;1.85;;
78885;SDS011;68269;52.514;5.722;2024-01-06T03:27:08;9.57;;;3.45;;
78885;SDS011;68269;52.514;5.722;2024-01-06T03:29:41;8.65;;;2.20;;
78885;SDS011;68269;52.514;5.722;2024-01-06T03:32:10;7.40;;;2.78;;
78885;SDS011;68269;52.514;5.722;2024-01-06T03:34:40;7.97;;;2.38;;
78885;SDS011;68269;52.514;5.722;2024-01-06T03:37:10;4.90;;;1.48;;
78885;SDS011;68269;52.514;5.722;2024-01-06T03:39:39;7.93;;;2.00;;
78885;SDS011;68269;52.514;5.722;2024-01-06T03:42:08;6.95;;;2.25;;
78885;SDS011;68269;52.514;5.722;2024-01-06T03:44:37;8.70;;;2.88;;
78885;SDS011;68269;52.514;5.722;2024-01-06T03:47:09;6.57;;;2.03;;
78885;SDS011;68269;52.514;5.722;2024-01-06T03:49:39;7.63;;;2.03;;
78885;SDS011;68269;52.514;5.722;2024-01-06T03:52:08;6.05;;;1.63;;
78885;SDS011;68269;52.514;5.722;2024-01-06T03:54:37;8.10;;;2.83;;
78885;SDS011;68269;52.514;5.722;2024-01-06T03:57:06;6.47;;;2.10;;
78885;SDS011;68269;52.514;5.722;2024-01-06T03:59:36;8.55;;;2.92;;
78885;SDS011;68269;52.514;5.722;2024-01-06T04:02:08;9.25;;;2.75;;
78885;SDS011;68269;52.514;5.722;2024-01-06T04:04:37;8.43;;;1.92;;
78885;SDS011;68269;52.514;5.722;2024-01-06T04:07:06;6.53;;;1.98;;
78885;SDS011;68269;52.514;5.722;2024-01-06T04:09:35;7.75;;;2.70;;
78885;SDS011;68269;52.514;5.722;2024-01-06T04:12:05;7.72;;;2.63;;
78885;SDS011;68269;52.514;5.722;2024-01-06T04:14:35;7.88;;;2.13;;
78885;SDS011;68269;52.514;5.722;2024-01-06T04:17:04;8.73;;;2.60;;
78885;SDS011;68269;52.514;5.722;2024-01-06T04:19:36;7.00;;;2.10;;
78885;SDS011;68269;52.514;5.722;2024-01-06T04:22:05;9.35;;;2.97;;
78885;SDS011;68269;52.514;5.722;2024-01-06T04:24:34;7.65;;;2.38;;
78885;SDS011;68269;52.514;5.722;2024-01-06T04:27:05;6.70;;;2.10;;
78885;SDS011;68269;52.514;5.722;2024-01-06T04:29:35;8.15;;;2.63;;
78885;SDS011;68269;52.514;5.722;2024-01-06T04:32:05;7.85;;;2.75;;
78885;SDS011;68269;52.514;5.722;2024-01-06T04:34:37;8.38;;;2.60;;
78885;SDS011;68269;52.514;5.722;2024-01-06T04:37:07;6.75;;;2.05;;
78885;SDS011;68269;52.514;5.722;2024-01-06T04:39:36;8.30;;;2.65;;
78885;SDS011;68269;52.514;5.722;2024-01-06T04:42:06;7.60;;;2.25;;
78885;SDS011;68269;52.514;5.722;2024-01-06T04:44:35;8.55;;;3.28;;
78885;SDS011;68269;52.514;5.722;2024-01-06T04:47:04;7.97;;;2.00;;
78885;SDS011;68269;52.514;5.722;2024-01-06T04:49:33;5.85;;;1.58;;
78885;SDS011;68269;52.514;5.722;2024-01-06T04:52:05;9.60;;;2.10;;
78885;SDS011;68269;52.514;5.722;2024-01-06T04:54:35;6.18;;;2.03;;
78885;SDS011;68269;52.514;5.722;2024-01-06T04:57:04;3.28;;;1.02;;
78885;SDS011;68269;52.514;5.722;2024-01-06T04:59:33;6.18;;;2.10;;
78885;SDS011;68269;52.514;5.722;2024-01-06T05:02:03;5.50;;;1.77;;
78885;SDS011;68269;52.514;5.722;2024-01-06T05:04:32;5.80;;;1.75;;
78885;SDS011;68269;52.514;5.722;2024-01-06T05:07:04;6.43;;;2.03;;
78885;SDS011;68269;52.514;5.722;2024-01-06T05:09:33;8.00;;;2.47;;
78885;SDS011;68269;52.514;5.722;2024-01-06T05:12:03;8.15;;;2.63;;
78885;SDS011;68269;52.514;5.722;2024-01-06T05:14:32;8.40;;;2.20;;
78885;SDS011;68269;52.514;5.722;2024-01-06T05:17:02;7.07;;;2.33;;
78885;SDS011;68269;52.514;5.722;2024-01-06T05:19:31;8.15;;;1.88;;
78885;SDS011;68269;52.514;5.722;2024-01-06T05:22:03;8.93;;;3.05;;
78885;SDS011;68269;52.514;5.722;2024-01-06T05:24:33;7.00;;;1.92;;
78885;SDS011;68269;52.514;5.722;2024-01-06T05:27:02;9.57;;;2.40;;
78885;SDS011;68269;52.514;5.722;2024-01-06T05:29:32;7.32;;;2.47;;
78885;SDS011;68269;52.514;5.722;2024-01-06T05:32:01;4.72;;;1.63;;
78885;SDS011;68269;52.514;5.722;2024-01-06T05:34:31;8.13;;;2.60;;
78885;SDS011;68269;52.514;5.722;2024-01-06T05:37:00;6.97;;;2.05;;
78885;SDS011;68269;52.514;5.722;2024-01-06T05:39:32;5.78;;;2.30;;
78885;SDS011;68269;52.514;5.722;2024-01-06T05:42:01;8.02;;;2.65;;
78885;SDS011;68269;52.514;5.722;2024-01-06T05:44:31;9.07;;;2.30;;
78885;SDS011;68269;52.514;5.722;2024-01-06T05:47:03;6.28;;;1.98;;
78885;SDS011;68269;52.514;5.722;2024-01-06T05:49:33;6.50;;;2.00;;
78885;SDS011;68269;52.514;5.722;2024-01-06T05:52:06;5.88;;;1.77;;
78885;SDS011;68269;52.514;5.722;2024-01-06T05:54:35;7.95;;;1.75;;
78885;SDS011;68269;52.514;5.722;2024-01-06T05:57:04;8.52;;;2.40;;
78885;SDS011;68269;52.514;5.722;2024-01-06T05:59:33;9.00;;;2.03;;
78885;SDS011;68269;52.514;5.722;2024-01-06T06:02:03;6.63;;;2.17;;
78885;SDS011;68269;52.514;5.722;2024-01-06T06:04:32;7.28;;;2.25;;
78885;SDS011;68269;52.514;5.722;2024-01-06T06:07:01;7.35;;;2.65;;
78885;SDS011;68269;52.514;5.722;2024-01-06T06:09:33;9.65;;;2.65;;
78885;SDS011;68269;52.514;5.722;2024-01-06T06:12:05;5.47;;;1.90;;
78885;SDS011;68269;52.514;5.722;2024-01-06T06:14:35;6.65;;;2.15;;
78885;SDS011;68269;52.514;5.722;2024-01-06T06:17:04;7.15;;;2.50;;
78885;SDS011;68269;52.514;5.722;2024-01-06T06:19:34;10.25;;;2.17;;
78885;SDS011;68269;52.514;5.722;2024-01-06T06:22:04;8.70;;;2.47;;
78885;SDS011;68269;52.514;5.722;2024-01-06T06:24:35;6.28;;;2.10;;
78885;SDS011;68269;52.514;5.722;2024-01-06T06:27:05;9.25;;;2.67;;
78885;SDS011;68269;52.514;5.722;2024-01-06T06:29:34;8.32;;;2.50;;
78885;SDS011;68269;52.514;5.722;2024-01-06T06:32:04;6.85;;;2.30;;
78885;SDS011;68269;52.514;5.722;2024-01-06T06:34:33;7.47;;;1.92;;
78885;SDS011;68269;52.514;5.722;2024-01-06T06:37:03;7.95;;;2.25;;
78885;SDS011;68269;52.514;5.722;2024-01-06T06:39:32;6.72;;;2.22;;
78885;SDS011;68269;52.514;5.722;2024-01-06T06:42:04;6.93;;;1.95;;
78885;SDS011;68269;52.514;5.722;2024-01-06T06:44:33;8.32;;;2.35;;
78885;SDS011;68269;52.514;5.722;2024-01-06T06:47:03;7.95;;;2.53;;
78885;SDS011;68269;52.514;5.722;2024-01-06T06:49:32;5.38;;;1.88;;
78885;SDS011;68269;52.514;5.722;2024-01-06T06:52:02;8.40;;;2.50;;
78885;SDS011;68269;52.514;5.722;2024-01-06T06:54:32;8.65;;;2.20;;
78885;SDS011;68269;52.514;5.722;2024-01-06T06:57:05;6.75;;;2.53;;
78885;SDS011;68269;52.514;5.722;2024-01-06T06:59:34;8.95;;;2.70;;
78885;SDS011;68269;52.514;5.722;2024-01-06T07:02:03;6.25;;;1.90;;
78885;SDS011;68269;52.514;5.722;2024-01-06T07:04:32;6.22;;;1.95;;
78885;SDS011;68269;52.514;5.722;2024-01-06T07:07:02;6.00;;;2.30;;
78885;SDS011;68269;52.514;5.722;2024-01-06T07:09:31;7.70;;;2.92;;
78885;SDS011;68269;52.514;5.722;2024-01-06T07:12:03;7.40;;;2.42;;
78885;SDS011;68269;52.514;5.722;2024-01-06T07:14:33;6.85;;;1.90;;
78885;SDS011;68269;52.514;5.722;2024-01-06T07:17:03;8.52;;;2.45;;
78885;SDS011;68269;52.514;5.722;2024-01-06T07:19:32;7.35;;;1.58;;
78885;SDS011;68269;52.514;5.722;2024-01-06T07:22:01;10.27;;;2.28;;
78885;SDS011;68269;52.514;5.722;2024-01-06T07:24:31;7.55;;;2.42;;
78885;SDS011;68269;52.514;5.722;2024-01-06T07:27:04;6.43;;;1.85;;
78885;SDS011;68269;52.514;5.722;2024-01-06T07:29:33;6.85;;;2.05;;
78885;SDS011;68269;52.514;5.722;2024-01-06T07:32:03;6.28;;;2.45;;
78885;SDS011;68269;52.514;5.722;2024-01-06T07:34:33;5.55;;;1.70;;
78885;SDS011;68269;52.514;5.722;2024-01-06T07:37:02;6.03;;;2.00;;
78885;SDS011;68269;52.514;5.722;2024-01-06T07:39:31;6.00;;;1.48;;
78885;SDS011;68269;52.514;5.722;2024-01-06T07:42:04;6.25;;;2.53;;
78885;SDS011;68269;52.514;5.722;2024-01-06T07:44:33;6.38;;;1.85;;
78885;SDS011;68269;52.514;5.722;2024-01-06T07:47:02;7.68;;;2.33;;
78885;SDS011;68269;52.514;5.722;2024-01-06T07:49:32;7.38;;;2.38;;
78885;SDS011;68269;52.514;5.722;2024-01-06T07:52:02;20.55;;;2.45;;
78885;SDS011;68269;52.514;5.722;2024-01-06T07:54:32;8.38;;;2.67;;
78885;SDS011;68269;52.514;5.722;2024-01-06T07:57:04;12.23;;;3.33;;
78885;SDS011;68269;52.514;5.722;2024-01-06T07:59:33;8.32;;;2.53;;
78885;SDS011;68269;52.514;5.722;2024-01-06T08:02:02;7.68;;;1.80;;
78885;SDS011;68269;52.514;5.722;2024-01-06T08:04:32;10.52;;;2.10;;
78885;SDS011;68269;52.514;5.722;2024-01-06T08:07:02;9.13;;;2.70;;
78885;SDS011;68269;52.514;5.722;2024-01-06T08:09:31;10.50;;;2.92;;
78885;SDS011;68269;52.514;5.722;2024-01-06T08:12:01;8.27;;;2.47;;
78885;SDS011;68269;52.514;5.722;2024-01-06T08:14:33;5.43;;;1.85;;
78885;SDS011;68269;52.514;5.722;2024-01-06T08:17:02;8.40;;;2.60;;
78885;SDS011;68269;52.514;5.722;2024-01-06T08:19:32;6.97;;;1.98;;
78885;SDS011;68269;52.514;5.722;2024-01-06T08:22:01;9.70;;;2.53;;
78885;SDS011;68269;52.514;5.722;2024-01-06T08:24:31;7.00;;;2.25;;
78885;SDS011;68269;52.514;5.722;2024-01-06T08:27:00;7.07;;;2.35;;
78885;SDS011;68269;52.514;5.722;2024-01-06T08:29:33;8.23;;;2.10;;
78885;SDS011;68269;52.514;5.722;2024-01-06T08:32:02;7.22;;;2.10;;
78885;SDS011;68269;52.514;5.722;2024-01-06T08:34:32;6.63;;;2.03;;
78885;SDS011;68269;52.514;5.722;2024-01-06T08:37:01;5.50;;;1.55;;
78885;SDS011;68269;52.514;5.722;2024-01-06T08:39:30;6.20;;;2.13;;
78885;SDS011;68269;52.514;5.722;2024-01-06T08:42:00;9.40;;;2.53;;
78885;SDS011;68269;52.514;5.722;2024-01-06T08:44:31;6.18;;;2.08;;
78885;SDS011;68269;52.514;5.722;2024-01-06T08:47:01;9.50;;;2.35;;
78885;SDS011;68269;52.514;5.722;2024-01-06T08:49:30;6.80;;;2.03;;
78885;SDS011;68269;52.514;5.722;2024-01-06T08:51:59;6.57;;;2.25;;
78885;SDS011;68269;52.514;5.722;2024-01-06T08:54:28;7.10;;;2.25;;
78885;SDS011;68269;52.514;5.722;2024-01-06T08:56:58;6.35;;;2.00;;
78885;SDS011;68269;52.514;5.722;2024-01-06T08:59:27;8.10;;;2.13;;
78885;SDS011;68269;52.514;5.722;2024-01-06T09:01:59;7.20;;;2.25;;
78885;SDS011;68269;52.514;5.722;2024-01-06T09:04:28;6.75;;;2.35;;
78885;SDS011;68269;52.514;5.722;2024-01-06T09:06:57;8.30;;;2.55;;
78885;SDS011;68269;52.514;5.722;2024-01-06T09:09:26;7.10;;;2.15;;
78885;SDS011;68269;52.514;5.722;2024-01-06T09:11:56;9.45;;;2.50;;
78885;SDS011;68269;52.514;5.722;2024-01-06T09:14:26;7.65;;;2.67;;
78885;SDS011;68269;52.514;5.722;2024-01-06T09:16:56;6.20;;;2.17;;
78885;SDS011;68269;52.514;5.722;2024-01-06T09:19:27;8.18;;;1.95;;
78885;SDS011;68269;52.514;5.722;2024-01-06T09:21:57;6.82;;;2.70;;
78885;SDS011;68269;52.514;5.722;2024-01-06T09:24:26;10.27;;;2.90;;
78885;SDS011;68269;52.514;5.722;2024-01-06T09:26:55;7.97;;;2.17;;
78885;SDS011;68269;52.514;5.722;2024-01-06T09:29:24;7.50;;;2.38;;
78885;SDS011;68269;52.514;5.722;2024-01-06T09:31:54;6.22;;;2.00;;
78885;SDS011;68269;52.514;5.722;2024-01-06T09:34:25;7.97;;;2.42;;
78885;SDS011;68269;52.514;5.722;2024-01-06T09:36:55;7.85;;;2.58;;
78885;SDS011;68269;52.514;5.722;2024-01-06T09:39:24;9.38;;;3.17;;
78885;SDS011;68269;52.514;5.722;2024-01-06T09:41:53;8.73;;;2.72;;
78885;SDS011;68269;52.514;5.722;2024-01-06T09:44:22;6.70;;;2.22;;
78885;SDS011;68269;52.514;5.722;2024-01-06T09:46:52;6.10;;;2.17;;
78885;SDS011;68269;52.514;5.722;2024-01-06T09:49:25;9.00;;;2.45;;
78885;SDS011;68269;52.514;5.722;2024-01-06T09:51:59;8.77;;;2.30;;
78885;SDS011;68269;52.514;5.722;2024-01-06T09:54:30;7.88;;;2.67;;
78885;SDS011;68269;52.514;5.722;2024-01-06T09:57:03;8.50;;;2.88;;
78885;SDS011;68269;52.514;5.722;2024-01-06T09:59:34;6.88;;;2.28;;
78885;SDS011;68269;52.514;5.722;2024-01-06T10:02:04;6.78;;;2.17;;
78885;SDS011;68269;52.514;5.722;2024-01-06T10:04:36;6.38;;;2.05;;
78885;SDS011;68269;52.514;5.722;2024-01-06T10:07:05;8.75;;;3.15;;
78885;SDS011;68269;52.514;5.722;2024-01-06T10:09:38;9.93;;;2.72;;
78885;SDS011;68269;52.514;5.722;2024-01-06T10:12:08;6.32;;;2.08;;
78885;SDS011;68269;52.514;5.722;2024-01-06T10:14:38;7.85;;;2.33;;
78885;SDS011;68269;52.514;5.722;2024-01-06T10:17:07;8.15;;;2.40;;
78885;SDS011;68269;52.514;5.722;2024-01-06T10:19:39;10.88;;;2.67;;
78885;SDS011;68269;52.514;5.722;2024-01-06T10:22:09;6.15;;;2.30;;
78885;SDS011;68269;52.514;5.722;2024-01-06T10:24:38;8.88;;;3.10;;
78885;SDS011;68269;52.514;5.722;2024-01-06T10:27:07;7.25;;;2.80;;
78885;SDS011;68269;52.514;5.722;2024-01-06T10:29:37;7.10;;;2.45;;
78885;SDS011;68269;52.514;5.722;2024-01-06T10:32:08;8.60;;;2.83;;
78885;SDS011;68269;52.514;5.722;2024-01-06T10:34:40;8.05;;;3.53;;
78885;SDS011;68269;52.514;5.722;2024-01-06T10:37:11;8.10;;;2.85;;
78885;SDS011;68269;52.514;5.722;2024-01-06T10:39:40;9.10;;;3.08;;
78885;SDS011;68269;52.514;5.722;2024-01-06T10:42:09;7.93;;;2.75;;
78885;SDS011;68269;52.514;5.722;2024-01-06T10:44:40;6.63;;;2.38;;
78885;SDS011;68269;52.514;5.722;2024-01-06T10:47:11;7.88;;;2.53;;
78885;SDS011;68269;52.514;5.722;2024-01-06T10:49:45;9.05;;;3.20;;
78885;SDS011;68269;52.514;5.722;2024-01-06T10:52:15;8.25;;;2.83;;
78885;SDS011;68269;52.514;5.722;2024-01-06T10:54:44;9.00;;;3.08;;
78885;SDS011;68269;52.514;5.722;2024-01-06T10:57:16;8.85;;;3.65;;
78885;SDS011;68269;52.514;5.722;2024-01-06T10:59:49;7.10;;;2.53;;
78885;SDS011;68269;52.514;5.722;2024-01-06T11:02:20;9.50;;;3.00;;
78885;SDS011;68269;52.514;5.722;2024-01-06T11:04:53;8.18;;;2.88;;
78885;SDS011;68269;52.514;5.722;2024-01-06T11:07:23;8.35;;;2.75;;
78885;SDS011;68269;52.514;5.722;2024-01-06T11:09:56;9.52;;;3.22;;
78885;SDS011;68269;52.514;5.722;2024-01-06T11:12:28;7.20;;;2.55;;
78885;SDS011;68269;52.514;5.722;2024-01-06T11:14:57;8.15;;;2.65;;
78885;SDS011;68269;52.514;5.722;2024-01-06T11:20:21;8.35;;;2.55;;
78885;SDS011;68269;52.514;5.722;2024-01-06T11:25:22;8.95;;;2.92;;
78885;SDS011;68269;52.514;5.722;2024-01-06T11:27:53;8.95;;;2.88;;
78885;SDS011;68269;52.514;5.722;2024-01-06T11:30:24;9.90;;;2.88;;
78885;SDS011;68269;52.514;5.722;2024-01-06T11:32:55;9.15;;;2.90;;
78885;SDS011;68269;52.514;5.722;2024-01-06T11:35:28;9.20;;;3.08;;
78885;SDS011;68269;52.514;5.722;2024-01-06T11:38:00;7.45;;;2.92;;
78885;SDS011;68269;52.514;5.722;2024-01-06T11:40:34;9.00;;;3.10;;
78885;SDS011;68269;52.514;5.722;2024-01-06T11:43:04;10.05;;;2.80;;
78885;SDS011;68269;52.514;5.722;2024-01-06T11:45:36;8.88;;;3.08;;
78885;SDS011;68269;52.514;5.722;2024-01-06T11:48:08;9.45;;;2.78;;
78885;SDS011;68269;52.514;5.722;2024-01-06T11:50:41;8.75;;;2.90;;
78885;SDS011;68269;52.514;5.722;2024-01-06T11:53:11;9.15;;;3.60;;
78885;SDS011;68269;52.514;5.722;2024-01-06T11:55:40;8.75;;;2.88;;
78885;SDS011;68269;52.514;5.722;2024-01-06T11:58:10;10.45;;;3.42;;
78885;SDS011;68269;52.514;5.722;2024-01-06T12:00:39;11.57;;;3.67;;
78885;SDS011;68269;52.514;5.722;2024-01-06T12:03:09;10.50;;;3.80;;
78885;SDS011;68269;52.514;5.722;2024-01-06T12:05:43;10.15;;;3.25;;
78885;SDS011;68269;52.514;5.722;2024-01-06T12:08:12;10.73;;;4.35;;
78885;SDS011;68269;52.514;5.722;2024-01-06T12:10:42;7.50;;;2.55;;
78885;SDS011;68269;52.514;5.722;2024-01-06T12:13:11;9.95;;;3.47;;
78885;SDS011;68269;52.514;5.722;2024-01-06T12:15:40;11.63;;;3.30;;
78885;SDS011;68269;52.514;5.722;2024-01-06T12:18:10;9.50;;;3.05;;
78885;SDS011;68269;52.514;5.722;2024-01-06T12:20:43;11.25;;;3.17;;
78885;SDS011;68269;52.514;5.722;2024-01-06T12:23:13;8.15;;;2.85;;
78885;SDS011;68269;52.514;5.722;2024-01-06T12:25:53;8.07;;;2.67;;
78885;SDS011;68269;52.514;5.722;2024-01-06T12:28:22;8.93;;;3.38;;
78885;SDS011;68269;52.514;5.722;2024-01-06T12:30:52;8.25;;;2.88;;
78885;SDS011;68269;52.514;5.722;2024-01-06T12:33:22;13.52;;;3.88;;
78885;SDS011;68269;52.514;5.722;2024-01-06T12:35:54;8.77;;;2.85;;
78885;SDS011;68269;52.514;5.722;2024-01-06T12:38:24;7.80;;;2.38;;
78885;SDS011;68269;52.514;5.722;2024-01-06T12:40:55;10.27;;;3.30;;
78885;SDS011;68269;52.514;5.722;2024-01-06T12:43:24;9.50;;;3.47;;
78885;SDS011;68269;52.514;5.722;2024-01-06T12:45:53;8.10;;;2.55;;
78885;SDS011;68269;52.514;5.722;2024-01-06T12:48:23;8.77;;;2.42;;
78885;SDS011;68269;52.514;5.722;2024-01-06T12:50:55;12.05;;;3.00;;
78885;SDS011;68269;52.514;5.722;2024-01-06T12:53:24;10.00;;;2.90;;
78885;SDS011;68269;52.514;5.722;2024-01-06T12:55:54;10.10;;;3.20;;
78885;SDS011;68269;52.514;5.722;2024-01-06T12:58:23;9.25;;;2.65;;
78885;SDS011;68269;52.514;5.722;2024-01-06T13:00:52;9.82;;;3.03;;
78885;SDS011;68269;52.514;5.722;2024-01-06T13:03:22;10.10;;;3.20;;
78885;SDS011;68269;52.514;5.722;2024-01-06T13:05:51;11.40;;;4.05;;
78885;SDS011;68269;52.514;5.722;2024-01-06T13:08:23;9.15;;;2.72;;
78885;SDS011;68269;52.514;5.722;2024-01-06T13:10:53;10.85;;;3.42;;
78885;SDS011;68269;52.514;5.722;2024-01-06T13:13:23;9.00;;;3.17;;
78885;SDS011;68269;52.514;5.722;2024-01-06T13:15:52;9.13;;;3.22;;
78885;SDS011;68269;52.514;5.722;2024-01-06T13:18:21;9.55;;;2.78;;
78885;SDS011;68269;52.514;5.722;2024-01-06T13:20:50;10.60;;;3.05;;
78885;SDS011;68269;52.514;5.722;2024-01-06T13:23:23;10.60;;;3.53;;
78885;SDS011;68269;52.514;5.722;2024-01-06T13:25:52;8.88;;;2.80;;
78885;SDS011;68269;52.514;5.722;2024-01-06T13:28:23;9.68;;;3.38;;
78885;SDS011;68269;52.514;5.722;2024-01-06T13:30:52;9.18;;;2.83;;
78885;SDS011;68269;52.514;5.722;2024-01-06T13:33:22;10.15;;;3.22;;
78885;SDS011;68269;52.514;5.722;2024-01-06T13:35:51;9.98;;;3.70;;
78885;SDS011;68269;52.514;5.722;2024-01-06T13:38:23;9.25;;;3.28;;
78885;SDS011;68269;52.514;5.722;2024-01-06T13:40:52;9.98;;;2.95;;
78885;SDS011;68269;52.514;5.722;2024-01-06T13:43:21;10.27;;;3.28;;
78885;SDS011;68269;52.514;5.722;2024-01-06T13:45:50;9.27;;;2.92;;
78885;SDS011;68269;52.514;5.722;2024-01-06T13:48:20;10.50;;;3.58;;
78885;SDS011;68269;52.514;5.722;2024-01-06T13:50:49;10.82;;;3.30;;
78885;SDS011;68269;52.514;5.722;2024-01-06T13:53:19;10.07;;;3.00;;
78885;SDS011;68269;52.514;5.722;2024-01-06T13:55:52;8.05;;;3.17;;
78885;SDS011;68269;52.514;5.722;2024-01-06T13:58:21;8.30;;;3.08;;
78885;SDS011;68269;52.514;5.722;2024-01-06T14:00:50;12.02;;;2.95;;
78885;SDS011;68269;52.514;5.722;2024-01-06T14:03:19;5.80;;;1.73;;
78885;SDS011;68269;52.514;5.722;2024-01-06T14:05:49;11.60;;;3.17;;
78885;SDS011;68269;52.514;5.722;2024-01-06T14:08:19;9.35;;;2.70;;
78885;SDS011;68269;52.514;5.722;2024-01-06T14:10:51;9.32;;;3.15;;
78885;SDS011;68269;52.514;5.722;2024-01-06T14:13:20;10.98;;;2.88;;
78885;SDS011;68269;52.514;5.722;2024-01-06T14:15:49;8.80;;;3.08;;
78885;SDS011;68269;52.514;5.722;2024-01-06T14:18:22;9.57;;;2.67;;
78885;SDS011;68269;52.514;5.722;2024-01-06T14:20:53;8.07;;;3.08;;
78885;SDS011;68269;52.514;5.722;2024-01-06T14:23:25;8.77;;;2.35;;
78885;SDS011;68269;52.514;5.722;2024-01-06T14:25:56;9.38;;;2.70;;
78885;SDS011;68269;52.514;5.722;2024-01-06T14:28:26;6.60;;;2.50;;
78885;SDS011;68269;52.514;5.722;2024-01-06T14:30:55;11.13;;;3.17;;
78885;SDS011;68269;52.514;5.722;2024-01-06T14:33:25;7.93;;;2.90;;
78885;SDS011;68269;52.514;5.722;2024-01-06T14:35:54;8.25;;;2.45;;
78885;SDS011;68269;52.514;5.722;2024-01-06T14:38:26;9.05;;;3.50;;
78885;SDS011;68269;52.514;5.722;2024-01-06T14:40:55;9.63;;;3.00;;
78885;SDS011;68269;52.514;5.722;2024-01-06T14:43:25;10.57;;;2.42;;
78885;SDS011;68269;52.514;5.722;2024-01-06T14:45:54;9.50;;;3.10;;
78885;SDS011;68269;52.514;5.722;2024-01-06T14:48:23;6.60;;;2.20;;
78885;SDS011;68269;52.514;5.722;2024-01-06T14:50:52;9.85;;;3.28;;
78885;SDS011;68269;52.514;5.722;2024-01-06T14:53:22;8.48;;;2.88;;
78885;SDS011;68269;52.514;5.722;2024-01-06T14:55:54;8.85;;;2.45;;
78885;SDS011;68269;52.514;5.722;2024-01-06T14:58:23;11.57;;;3.58;;
78885;SDS011;68269;52.514;5.722;2024-01-06T15:00:52;9.00;;;2.72;;
78885;SDS011;68269;52.514;5.722;2024-01-06T15:03:21;8.63;;;2.97;;
78885;SDS011;68269;52.514;5.722;2024-01-06T15:05:51;10.15;;;2.97;;